GCLPGCLA

Guest
Details From GCLP - Gran Canaria
To GCLA - La Palma
Flight Number -
Tags decoded
Created
Modified
Stats Distance 142 nm / 263 km
Max Altitude 0 ft / 0 m
Waypoints 4
Social Downloads 4
Likes 0
Share VATSIM

Download

Looking for another format? Having issues loading an existing format? Contact us
Advertisement - Login to hide

Notes

Requested: GCLP TFN ARACO GCLA

Route

GCLP TFN ARACO GCLA

ID Type Via Altitude Latitude Longitude Leg Dist Tot Dist Heading (true) Name
O GCLP APT - 0 ft / 0 m 27.93154˚ -15.38559˚ - 0 nm - Gran Canaria
TFN VOR - 0 ft / 0 m 28.53683˚ -16.26878˚ 59 nm 59 nm 308° / 308° TENERIFE NORTE VOR-DME
ARACO FIX - 0 ft / 0 m 28.43252˚ -17.45233˚ 62 nm 121 nm 265° / 264° -
O GCLA APT - 0 ft / 0 m 28.62648˚ -17.75561˚ 19 nm 141 nm 306° / 306° La Palma

Altitude Profile

Advertisement - Login to hide

GCLP

Details ICAO GCLP (LPA)
Name Gran Canaria
Region Canary Islands
Timezone Atlantic/Canary (UTC+0.0)
Stats Elevation 77 ft / 23 m (AMSL)
Location 27.931544° -15.385592°
Runways 2
Magnetic Variation 4.686° W

METAR

GCLP 111330Z 16013KT 9999 FEW035 22/15 Q1016 NOSIG

Decode

TAF

TAF AMD GCLP 111001Z 1110/1209 VRB05KT 9999 SCT040 TX23/1113Z TN15/1206Z BECMG 1110/1111 22010KT PROB40 TEMPO 1119/1204 3000 RA BECMG 1121/1123 01020KT TEMPO 1121/1209 01020G35KT

Decode

Departure Runways

ID Width Length Bearing (true) Bearing (mag) Surface Threshold Offset Overrun Length
03L 148 ft / 45 m 10,203 ft / 3,110 m 21.33° 26.02° Asphalt 0 ft / 0 m 656 ft / 200 m
03R 148 ft / 45 m 10,200 ft / 3,109 m 21.32° 26.01° Asphalt 0 ft / 0 m 673 ft / 205 m
21L 148 ft / 45 m 10,200 ft / 3,109 m 201.33° 206.02° Asphalt 0 ft / 0 m 689 ft / 210 m
21R 148 ft / 45 m 10,203 ft / 3,110 m 201.33° 206.02° Asphalt 0 ft / 0 m 755 ft / 230 m

GCLA

Details ICAO GCLA (SPC)
Name La Palma
Region Canary Islands
Timezone Atlantic/Canary (UTC+0.0)
Stats Elevation 107 ft / 33 m (AMSL)
Location 28.626480° -17.755613°
Runways 1
Magnetic Variation 5.523° W

METAR

GCLA 111330Z 17008KT 140V200 9999 FEW030 22/15 Q1018

Decode

TAF

TAF GCLA 110800Z 1109/1209 16005KT 9999 SCT025 TX23/1113Z TN17/1206Z PROB40 TEMPO 1118/1202 3000 RA BKN014 BECMG 1118/1120 01019KT

Decode

Destination Runways

ID Width Length Bearing (true) Bearing (mag) Surface Threshold Offset Overrun Length
01 148 ft / 45 m 7,240 ft / 2,207 m 359.02° 4.54° Asphalt 0 ft / 0 m 279 ft / 85 m
19 148 ft / 45 m 7,240 ft / 2,207 m 179.02° 184.54° Asphalt 0 ft / 0 m 236 ft / 72 m

Popular Alternatives